Time;durP1;ratioP1;P1;durP2;ratioP2;P2;SDS_P1;SDS_P2;PMS_P1;PMS_P2;Temp;Humidity;BMP_temperature;BMP_pressure;BME280_temperature;BME280_humidity;BME280_pressure;Samples;Min_cycle;Max_cycle;Signal;HPM_P1;HPM_P2
2021/08/11 00:00:34;;;;;;;65.85;61.80;;;;;;;15.23;100.00;101802.97;5068091;28;20048;-50
2021/08/11 00:03:02;;;;;;;52.47;48.70;;;;;;;15.21;100.00;101799.63;5060156;28;20382;-50
2021/08/11 00:05:30;;;;;;;58.70;54.70;;;;;;;15.19;100.00;101796.28;5067484;28;20471;-47
2021/08/11 00:07:58;;;;;;;50.22;46.72;;;;;;;15.16;100.00;101802.56;5060204;28;20434;-50
2021/08/11 00:10:25;;;;;;;42.63;39.67;;;;;;;15.14;100.00;101802.03;5061501;28;20139;-50
2021/08/11 00:12:53;;;;;;;52.40;48.80;;;;;;;15.13;100.00;101804.00;5061094;28;20443;-49
2021/08/11 00:15:21;;;;;;;53.33;49.65;;;;;;;15.11;100.00;101806.28;5066472;28;20045;-49
2021/08/11 00:21:46;;;;;;;27.80;25.75;;;;;;;15.00;100.00;101801.13;5051264;28;20051;-51
2021/08/11 00:24:14;;;;;;;31.92;29.60;;;;;;;14.99;100.00;101793.81;5064883;28;20052;-51
2021/08/11 00:26:42;;;;;;;47.05;43.80;;;;;;;14.99;100.00;101793.81;5057141;28;20048;-48
2021/08/11 00:29:09;;;;;;;37.45;34.85;;;;;;;14.98;100.00;101795.81;5064891;28;20120;-48
2021/08/11 00:31:37;;;;;;;54.15;50.40;;;;;;;14.99;100.00;101797.47;5072686;28;20097;-49
2021/08/11 00:34:05;;;;;;;37.65;35.08;;;;;;;14.97;100.00;101796.97;5064307;28;20041;-47
2021/08/11 00:36:33;;;;;;;63.83;59.58;;;;;;;14.97;100.00;101796.13;5056116;28;20059;-48
2021/08/11 00:39:02;;;;;;;56.97;52.88;;;;;;;14.95;100.00;101793.63;5065017;28;20128;-45
2021/08/11 00:41:31;;;;;;;38.60;35.72;;;;;;;14.95;100.00;101793.63;5072271;28;20060;-52
2021/08/11 00:44:00;;;;;;;37.33;34.58;;;;;;;14.96;100.00;101794.47;5062371;28;20419;-47
2021/08/11 00:46:29;;;;;;;50.20;46.92;;;;;;;14.96;100.00;101798.09;5073007;28;20053;-46
2021/08/11 00:48:58;;;;;;;36.58;34.15;;;;;;;14.95;100.00;101801.22;5061274;28;20041;-50
2021/08/11 00:51:28;;;;;;;34.97;32.33;;;;;;;14.93;100.00;101792.25;5070328;28;20056;-49
2021/08/11 00:54:00;;;;;;;35.95;33.22;;;;;;;14.92;100.00;101797.03;5076013;28;20049;-50
2021/08/11 00:56:33;;;;;;;46.87;43.60;;;;;;;14.90;100.00;101790.88;5063181;28;20048;-48
2021/08/11 00:59:02;;;;;;;46.33;42.72;;;;;;;14.90;100.00;101795.69;5062314;28;20076;-45
2021/08/11 01:01:32;;;;;;;35.33;32.55;;;;;;;14.89;100.00;101792.03;5056399;28;20094;-51
2021/08/11 01:04:03;;;;;;;26.30;24.20;;;;;;;14.88;100.00;101795.13;5076357;28;20499;-47
2021/08/11 01:06:31;;;;;;;39.83;36.90;;;;;;;14.87;100.00;101794.31;5072940;28;20053;-49
2021/08/11 01:09:00;;;;;;;26.45;24.40;;;;;;;14.85;100.00;101784.50;5058753;28;20068;-47
2021/08/11 01:11:31;;;;;;;22.33;20.58;;;;;;;14.85;100.00;101785.34;5082089;28;20048;-49
2021/08/11 01:14:00;;;;;;;23.08;21.25;;;;;;;14.86;100.00;101787.00;5057828;28;20500;-47
2021/08/11 01:16:29;;;;;;;23.52;21.83;;;;;;;14.84;100.00;101783.66;5074288;28;20056;-47
2021/08/11 01:18:58;;;;;;;27.40;25.52;;;;;;;14.82;100.00;101792.41;5062210;28;20102;-48
2021/08/11 01:21:32;;;;;;;29.63;27.42;;;;;;;14.82;100.00;101786.78;5078801;28;20044;-48
2021/08/11 01:24:06;;;;;;;24.27;22.42;;;;;;;14.81;100.00;101785.13;5073510;28;20438;-48
2021/08/11 01:27:00;;;;;;;24.42;22.38;;;;;;;14.78;100.00;101780.13;5077041;28;20516;-51
2021/08/11 01:29:34;;;;;;;27.13;25.15;;;;;;;14.76;100.00;101784.38;5055967;28;20121;-54
2021/08/11 01:32:07;;;;;;;30.35;28.20;;;;;;;14.76;100.00;101779.59;5073790;28;20103;-52
2021/08/11 01:34:43;;;;;;;33.90;31.35;;;;;;;14.77;100.00;101789.69;5062329;28;20394;-49
2021/08/11 01:37:21;;;;;;;30.35;28.13;;;;;;;14.76;100.00;101790.84;5062179;28;20499;-51
2021/08/11 01:39:54;;;;;;;30.20;28.00;;;;;;;14.77;100.00;101791.66;5056860;28;20057;-48
2021/08/11 01:42:28;;;;;;;28.27;26.15;;;;;;;14.76;100.00;101782.41;5073915;28;20391;-47
2021/08/11 01:45:03;;;;;;;30.67;28.60;;;;;;;14.75;100.00;101786.34;5061651;28;20048;-47
2021/08/11 01:47:36;;;;;;;32.90;30.27;;;;;;;14.75;100.00;101791.97;5062056;28;20056;-49
2021/08/11 01:50:09;;;;;;;22.33;20.60;;;;;;;14.74;100.00;101790.31;5063221;28;20131;-50
2021/08/11 01:52:40;;;;;;;24.27;22.40;;;;;;;14.73;100.00;101784.97;5062982;28;20055;-46
2021/08/11 01:55:10;;;;;;;21.80;19.80;;;;;;;14.71;100.00;101781.66;5078983;28;20057;-47
2021/08/11 01:57:40;;;;;;;23.40;21.55;;;;;;;14.69;100.00;101781.09;5059932;28;20048;-47
2021/08/11 02:00:09;;;;;;;23.20;21.67;;;;;;;14.69;100.00;101781.09;5080314;28;20412;-47
2021/08/11 02:02:41;;;;;;;21.30;19.70;;;;;;;14.69;100.00;101781.09;5060093;28;20052;-51
2021/08/11 02:05:21;;;;;;;22.20;20.60;;;;;;;14.68;100.00;101783.09;5068366;28;20052;-50
2021/08/11 02:07:50;;;;;;;23.83;22.00;;;;;;;14.70;100.00;101782.78;5075801;28;20048;-52
2021/08/11 02:10:20;;;;;;;25.13;23.20;;;;;;;14.72;100.00;101780.50;5081477;28;20102;-48
2021/08/11 02:12:49;;;;;;;20.05;18.55;;;;;;;14.73;100.00;101779.38;5049905;28;20048;-47
2021/08/11 02:15:17;;;;;;;22.60;20.98;;;;;;;14.75;100.00;101779.91;5081231;28;20512;-51
2021/08/11 02:17:47;;;;;;;22.15;20.58;;;;;;;14.75;100.00;101786.34;5073236;28;20052;-49
2021/08/11 02:20:15;;;;;;;23.27;21.25;;;;;;;14.74;100.00;101779.06;5064147;28;20052;-52
2021/08/11 02:22:45;;;;;;;21.90;20.17;;;;;;;14.74;100.00;101779.06;5042255;28;20463;-47
2021/08/11 02:25:14;;;;;;;18.95;17.30;;;;;;;14.73;100.00;101776.56;5081229;28;20409;-50
2021/08/11 02:27:50;;;;;;;19.60;18.17;;;;;;;14.71;100.00;101782.47;5057738;28;20463;-47
2021/08/11 02:30:21;;;;;;;18.08;16.58;;;;;;;14.70;100.00;101777.16;5081209;28;20056;-49
2021/08/11 02:32:55;;;;;;;19.52;18.00;;;;;;;14.69;100.00;101773.50;5072882;28;20055;-47
2021/08/11 02:35:28;;;;;;;15.90;14.52;;;;;;;14.69;100.00;101776.31;5081177;28;20059;-48
2021/08/11 02:38:03;;;;;;;14.32;13.00;;;;;;;14.68;100.00;101783.09;5056784;28;20131;-51
2021/08/11 02:40:37;;;;;;;13.52;11.98;;;;;;;14.68;100.00;101780.28;5080566;28;20056;-47
2021/08/11 02:43:10;;;;;;;19.27;17.50;;;;;;;14.67;100.00;101787.03;5059526;28;20049;-47
2021/08/11 02:45:41;;;;;;;19.67;17.95;;;;;;;14.68;100.00;101783.09;5048342;28;20045;-50
2021/08/11 02:48:12;;;;;;;23.42;21.65;;;;;;;14.68;100.00;101782.25;5080999;28;20048;-53
2021/08/11 02:50:42;;;;;;;18.73;17.20;;;;;;;14.67;100.00;101780.56;5074809;28;20048;-50
2021/08/11 02:53:15;;;;;;;22.83;21.08;;;;;;;14.65;100.00;101775.25;5080112;28;20053;-51
2021/08/11 02:55:43;;;;;;;22.80;20.85;;;;;;;14.64;100.00;101784.81;5075044;28;20492;-50
2021/08/11 02:58:13;;;;;;;35.65;33.08;;;;;;;14.63;100.00;101788.78;5079020;28;20053;-48
2021/08/11 03:00:41;;;;;;;36.55;34.00;;;;;;;14.64;100.00;101787.63;5060579;28;20040;-48
2021/08/11 03:03:09;;;;;;;30.75;28.55;;;;;;;14.65;100.00;101786.50;5066923;28;20466;-45
2021/08/11 03:05:38;;;;;;;22.80;20.98;;;;;;;14.65;100.00;101780.88;5082880;28;20455;-47
2021/08/11 03:08:07;;;;;;;24.77;22.83;;;;;;;14.65;100.00;101786.50;5064519;28;20464;-46
2021/08/11 03:10:39;;;;;;;25.83;23.75;;;;;;;14.65;100.00;101791.28;5083116;28;20139;-46
2021/08/11 03:13:11;;;;;;;24.63;22.65;;;;;;;14.63;100.00;101782.31;5062176;28;20045;-48
2021/08/11 03:15:42;;;;;;;19.15;17.50;;;;;;;14.62;100.00;101775.88;5081806;28;20053;-49
2021/08/11 03:18:10;;;;;;;24.60;22.45;;;;;;;14.61;100.00;101782.63;5065372;28;20045;-47
2021/08/11 03:20:39;;;;;;;24.58;22.77;;;;;;;14.63;100.00;101780.34;5079205;28;20413;-49
2021/08/11 03:23:12;;;;;;;19.38;17.73;;;;;;;14.62;100.00;101778.66;5081140;28;20040;-52
2021/08/11 03:25:43;;;;;;;24.80;22.58;;;;;;;14.61;100.00;101785.44;5064036;28;20048;-48
2021/08/11 03:28:12;;;;;;;20.73;18.85;;;;;;;14.61;100.00;101774.19;5081863;28;20141;-50
2021/08/11 03:30:42;;;;;;;26.52;24.33;;;;;;;14.63;100.00;101785.13;5078259;28;20040;-49
2021/08/11 03:33:10;;;;;;;19.83;18.20;;;;;;;14.62;100.00;101784.28;5083654;28;20492;-48
2021/08/11 03:35:38;;;;;;;23.52;21.52;;;;;;;14.62;100.00;101783.44;5060589;28;20135;-47
2021/08/11 03:38:06;;;;;;;48.17;44.72;;;;;;;14.62;100.00;101780.66;5083736;28;20052;-48
2021/08/11 03:40:34;;;;;;;31.58;28.92;;;;;;;14.62;100.00;101786.25;5076217;28;20135;-51
2021/08/11 03:43:04;;;;;;;30.83;28.38;;;;;;;14.62;100.00;101784.28;5083055;28;20059;-49
2021/08/11 03:45:33;;;;;;;26.88;24.75;;;;;;;14.63;100.00;101782.31;5089160;28;20040;-50
2021/08/11 03:48:01;;;;;;;22.95;21.05;;;;;;;14.62;100.00;101787.09;5083691;28;20044;-46
2021/08/11 03:50:31;;;;;;;20.02;18.05;;;;;;;14.60;100.00;101789.38;5075405;28;20412;-54
2021/08/11 03:52:59;;;;;;;24.33;22.27;;;;;;;14.59;100.00;101790.50;5083214;28;20417;-48
2021/08/11 03:55:32;;;;;;;31.52;28.85;;;;;;;14.56;100.00;101791.16;5076086;28;20052;-52
2021/08/11 03:58:04;;;;;;;28.75;26.48;;;;;;;14.56;100.00;101799.56;5088703;28;20113;-53
2021/08/11 04:00:32;;;;;;;37.22;34.40;;;;;;;14.56;100.00;101796.75;5061416;28;20515;-47
2021/08/11 04:02:59;;;;;;;54.40;50.45;;;;;;;14.58;100.00;101808.53;5067025;28;20083;-49
2021/08/11 04:05:27;;;;;;;44.08;40.90;;;;;;;14.58;100.00;101796.47;5062941;28;20056;-50
2021/08/11 04:07:55;;;;;;;48.10;44.45;;;;;;;14.58;100.00;101802.91;5062877;28;20434;-48
2021/08/11 04:10:23;;;;;;;47.55;43.83;;;;;;;14.60;100.00;101794.16;5061159;28;20102;-47
2021/08/11 04:12:50;;;;;;;50.70;47.10;;;;;;;14.61;100.00;101798.63;5055877;28;20037;-53
2021/08/11 04:15:20;;;;;;;50.42;46.65;;;;;;;14.64;100.00;101798.03;5064201;28;20497;-48
2021/08/11 04:17:48;;;;;;;42.00;38.92;;;;;;;14.65;100.00;101800.53;5065870;28;20420;-47
2021/08/11 04:20:16;;;;;;;49.72;45.70;;;;;;;14.68;100.00;101802.75;5063894;28;20099;-48
2021/08/11 04:22:43;;;;;;;49.65;46.20;;;;;;;14.71;100.00;101798.50;5058863;28;20071;-49
2021/08/11 04:25:11;;;;;;;50.85;46.85;;;;;;;14.73;100.00;101805.50;5059737;28;20790;-51
2021/08/11 04:27:39;;;;;;;41.78;38.78;;;;;;;14.74;100.00;101807.16;5062168;28;20520;-47
2021/08/11 04:30:08;;;;;;;40.28;37.25;;;;;;;14.74;100.00;101812.78;5058418;28;20171;-47
2021/08/11 04:32:38;;;;;;;49.95;46.17;;;;;;;14.74;100.00;101809.13;5063145;28;20527;-48
2021/08/11 04:35:07;;;;;;;46.47;43.17;;;;;;;14.74;100.00;101812.78;5057563;28;20048;-49
2021/08/11 04:37:36;;;;;;;57.80;53.40;;;;;;;14.76;100.00;101816.13;5067857;28;20056;-48
2021/08/11 04:40:05;;;;;;;50.30;46.25;;;;;;;14.76;100.00;101810.50;5066520;28;20048;-53
2021/08/11 04:42:33;;;;;;;45.75;42.22;;;;;;;14.77;100.00;101817.78;5059893;28;20060;-47
2021/08/11 04:45:00;;;;;;;47.35;43.40;;;;;;;14.81;100.00;101813.22;5066898;28;20049;-50
2021/08/11 04:47:28;;;;;;;43.20;40.20;;;;;;;14.82;100.00;101826.13;5058999;28;20460;-49
2021/08/11 04:49:57;;;;;;;55.97;51.90;;;;;;;14.85;100.00;101823.84;5066635;28;20094;-49
2021/08/11 04:52:25;;;;;;;49.47;45.70;;;;;;;14.87;100.00;101822.41;5059678;28;20049;-49
2021/08/11 04:54:52;;;;;;;54.85;50.67;;;;;;;14.90;100.00;101819.00;5067720;28;20418;-47
2021/08/11 04:57:20;;;;;;;54.60;50.42;;;;;;;14.93;100.00;101823.16;5062540;28;20053;-49
2021/08/11 04:59:47;;;;;;;42.35;38.72;;;;;;;14.97;100.00;101815.81;5058030;28;20045;-52
2021/08/11 05:02:15;;;;;;;47.28;43.75;;;;;;;15.01;100.00;101814.03;5060287;28;20397;-49
2021/08/11 05:04:43;;;;;;;44.72;41.20;;;;;;;15.05;100.00;101813.13;5061949;28;20107;-48
2021/08/11 05:07:12;;;;;;;46.80;43.22;;;;;;;15.10;100.00;101809.41;5060185;28;20056;-49
2021/08/11 05:09:40;;;;;;;52.13;48.15;;;;;;;15.14;100.00;101810.47;5058296;28;20562;-47
2021/08/11 05:12:08;;;;;;;64.97;60.10;;;;;;;15.17;100.00;101815.47;5063329;28;20053;-47
2021/08/11 05:14:36;;;;;;;59.40;55.03;;;;;;;15.21;100.00;101813.69;5063753;28;20119;-51
2021/08/11 05:17:04;;;;;;;48.08;44.47;;;;;;;15.26;100.00;101816.44;5058402;28;20468;-54
2021/08/11 05:19:31;;;;;;;41.53;38.20;;;;;;;15.30;100.00;101816.66;5059943;28;20374;-53
2021/08/11 05:21:59;;;;;;;88.80;82.38;;;;;;;15.33;100.00;101814.06;5068613;28;20052;-54
2021/08/11 05:24:29;;;;;;;82.90;76.82;;;;;;;15.36;100.00;101816.25;5061876;28;20053;-53
2021/08/11 05:26:56;;;;;;;54.75;50.72;;;;;;;15.41;100.00;101821.78;5056669;28;20060;-47
2021/08/11 05:29:24;;;;;;;80.53;74.30;;;;;;;15.46;100.00;101832.09;5062548;28;20044;-50
2021/08/11 05:31:52;;;;;;;88.18;81.47;;;;;;;15.49;100.00;101815.44;5056071;28;20074;-48
2021/08/11 05:34:19;;;;;;;87.50;81.25;;;;;;;15.55;100.00;101826.63;5063735;28;20052;-47
2021/08/11 05:36:47;;;;;;;54.40;49.95;;;;;;;15.60;100.00;101826.53;5055689;28;20053;-46
2021/08/11 05:39:15;;;;;;;57.00;52.83;;;;;;;15.65;100.00;101827.28;5063680;28;20079;-49
2021/08/11 05:41:44;;;;;;;84.55;78.20;;;;;;;15.70;100.00;101837.63;5056290;28;20582;-48
2021/08/11 05:44:12;;;;;;;66.78;61.75;;;;;;;15.76;100.00;101842.00;5063157;28;20134;-49
2021/08/11 05:46:39;;;;;;;89.22;82.43;;;;;;;15.81;100.00;101844.72;5055618;28;20049;-53
2021/08/11 05:49:07;;;;;;;71.82;66.70;;;;;;;15.87;100.00;101845.47;5062411;28;20103;-48
2021/08/11 05:51:36;;;;;;;97.85;90.30;;;;;;;15.93;100.00;101844.22;5056488;28;20055;-47
2021/08/11 05:54:05;;;;;;;93.78;86.72;;;;;;;15.98;100.00;101855.38;5060412;28;20067;-50
2021/08/11 05:56:32;;;;;;;88.03;81.88;;;;;;;16.05;100.00;101853.81;5057922;28;20048;-48
2021/08/11 05:59:01;;;;;;;124.88;115.68;;;;;;;16.14;100.00;101857.59;5059602;28;20052;-48
2021/08/11 06:01:30;;;;;;;91.53;84.78;;;;;;;16.32;100.00;101860.59;5064249;28;20111;-50
2021/08/11 06:03:59;;;;;;;112.72;104.03;;;;;;;16.58;100.00;101864.56;5061696;28;20071;-48
2021/08/11 06:06:27;;;;;;;116.38;108.03;;;;;;;16.80;100.00;101863.78;5064020;28;20488;-48
2021/08/11 06:08:56;;;;;;;125.22;115.78;;;;;;;17.01;100.00;101855.69;5058392;28;20056;-48
2021/08/11 06:11:23;;;;;;;118.60;110.20;;;;;;;17.18;100.00;101855.84;5062520;28;20051;-51
2021/08/11 06:13:51;;;;;;;145.45;134.68;;;;;;;17.33;100.00;101863.94;5063414;28;20057;-53
2021/08/11 06:16:20;;;;;;;129.30;119.50;;;;;;;17.53;100.00;101862.59;5062293;28;20562;-50
2021/08/11 06:18:48;;;;;;;146.73;135.45;;;;;;;17.66;100.00;101863.69;5067935;28;20056;-48
2021/08/11 06:21:16;;;;;;;161.02;149.25;;;;;;;17.81;100.00;101864.09;5057699;28;20079;-50
2021/08/11 06:23:43;;;;;;;173.95;160.60;;;;;;;17.98;100.00;101856.91;5065403;28;20051;-52
2021/08/11 06:26:11;;;;;;;167.43;154.73;;;;;;;18.11;100.00;101856.78;5076337;28;20044;-48
2021/08/11 06:28:39;;;;;;;185.40;171.43;;;;;;;18.28;100.00;101843.88;5068514;28;20045;-49
2021/08/11 06:31:06;;;;;;;186.55;172.45;;;;;;;18.46;100.00;101848.41;5061263;28;20147;-53
2021/08/11 06:33:35;;;;;;;181.65;169.05;;;;;;;18.58;100.00;101857.09;5068961;28;20131;-52
2021/08/11 06:36:04;;;;;;;173.43;160.45;;;;;;;18.67;100.00;101857.97;5061950;28;20040;-54
2021/08/11 06:38:32;;;;;;;179.77;165.13;;;;;;;18.79;100.00;101860.16;5068713;28;20502;-50
2021/08/11 06:40:59;;;;;;;186.13;171.02;;;;;;;18.92;100.00;101860.00;5061955;28;20045;-48
2021/08/11 06:43:27;;;;;;;168.80;155.73;;;;;;;18.94;100.00;101854.03;5048668;28;20060;-49
2021/08/11 06:45:55;;;;;;;201.88;187.00;;;;;;;18.94;100.00;101862.50;5079858;28;20060;-49
2021/08/11 06:48:23;;;;;;;201.48;186.40;;;;;;;18.96;100.00;101865.00;5076185;28;20044;-50
2021/08/11 06:50:55;;;;;;;170.73;157.75;;;;;;;18.98;100.00;101872.00;5062949;28;20052;-49
2021/08/11 06:53:22;;;;;;;173.87;160.63;;;;;;;18.91;100.00;101875.31;5065970;28;20406;-50
2021/08/11 06:55:50;;;;;;;179.77;166.07;;;;;;;18.89;100.00;101874.81;5065514;28;20049;-50
2021/08/11 06:58:18;;;;;;;160.63;149.00;;;;;;;18.86;100.00;101875.47;5067403;28;20044;-51
2021/08/11 07:00:45;;;;;;;165.85;153.25;;;;;;;18.88;100.00;101878.81;5064995;28;20053;-49
2021/08/11 07:03:13;;;;;;;164.05;151.13;;;;;;;18.94;100.00;101876.66;5066314;28;20059;-48
2021/08/11 07:05:41;;;;;;;169.25;156.32;;;;;;;19.01;100.00;101876.97;5060868;28;20568;-49
2021/08/11 07:08:11;;;;;;;153.85;142.00;;;;;;;19.09;100.00;101883.81;5061298;28;20406;-49
2021/08/11 07:10:41;;;;;;;159.82;148.43;;;;;;;19.13;100.00;101885.66;5066016;28;20085;-48
2021/08/11 07:13:09;;;;;;;179.20;165.48;;;;;;;19.15;100.00;101885.31;5064285;28;20576;-48
2021/08/11 07:15:37;;;;;;;172.68;159.80;;;;;;;19.19;100.00;101889.13;5067049;28;20056;-50
2021/08/11 07:18:04;;;;;;;186.43;172.48;;;;;;;19.25;100.00;101887.81;5055025;28;20578;-50
2021/08/11 07:20:32;;;;;;;175.98;162.73;;;;;;;19.25;100.00;101893.47;5058971;28;20052;-48
2021/08/11 07:23:00;;;;;;;193.88;179.88;;;;;;;19.25;100.00;101893.47;5066133;28;20413;-49
2021/08/11 07:25:29;;;;;;;175.85;162.50;;;;;;;19.27;100.00;101897.63;5058783;28;20401;-47
2021/08/11 07:27:57;;;;;;;194.30;180.80;;;;;;;19.30;100.00;101893.31;5064931;28;20076;-48
2021/08/11 07:30:26;;;;;;;208.45;194.35;;;;;;;19.38;100.00;101889.66;5058277;28;20490;-48
2021/08/11 07:32:54;;;;;;;164.95;152.23;;;;;;;19.46;100.00;101891.63;5065840;28;20041;-51
2021/08/11 07:35:23;;;;;;;182.00;168.18;;;;;;;19.53;100.00;101905.31;5073216;28;20044;-49
2021/08/11 07:37:52;;;;;;;197.65;183.48;;;;;;;19.53;100.00;101897.66;5065460;28;20052;-48
2021/08/11 07:40:22;;;;;;;214.40;198.93;;;;;;;19.53;100.00;101900.50;5047332;28;20036;-47
2021/08/11 07:42:51;;;;;;;214.18;198.75;;;;;;;19.58;100.00;101902.31;5063081;28;20041;-47
2021/08/11 07:45:20;;;;;;;193.10;179.25;;;;;;;19.57;100.00;101895.00;5059664;28;20036;-49
2021/08/11 07:47:52;;;;;;;176.27;163.48;;;;;;;19.61;100.00;101901.63;5062516;28;20041;-48
2021/08/11 07:50:22;;;;;;;209.57;193.82;;;;;;;19.67;100.00;101902.28;5065160;28;20045;-49
2021/08/11 07:52:50;;;;;;;183.88;171.10;;;;;;;19.69;100.00;101900.78;5050757;28;20477;-48
2021/08/11 07:55:18;;;;;;;208.15;193.45;;;;;;;19.65;100.00;101902.63;5059614;28;20064;-50
2021/08/11 07:57:46;;;;;;;222.45;205.85;;;;;;;19.65;100.00;101896.13;5061701;28;20049;-51
2021/08/11 08:00:17;;;;;;;202.07;187.07;;;;;;;19.66;99.55;101895.81;5059143;28;20375;-47
2021/08/11 08:02:45;;;;;;;201.10;186.98;;;;;;;19.64;99.59;101897.31;5060774;28;20558;-54
2021/08/11 08:05:13;;;;;;;185.10;171.07;;;;;;;19.64;99.21;101897.31;5064642;28;20053;-48
2021/08/11 08:07:41;;;;;;;210.02;194.85;;;;;;;19.67;99.18;101893.81;5064999;28;20056;-51
2021/08/11 08:10:09;;;;;;;190.43;176.05;;;;;;;19.72;99.25;101902.13;5063495;28;20040;-51
2021/08/11 08:12:39;;;;;;;174.40;161.35;;;;;;;19.73;98.85;101893.31;5065873;28;20056;-48
2021/08/11 08:15:08;;;;;;;192.88;178.70;;;;;;;19.74;98.06;101894.13;5062489;28;20147;-48
2021/08/11 08:17:38;;;;;;;171.82;159.75;;;;;;;19.80;98.45;101887.09;5066726;28;20052;-51
2021/08/11 08:20:16;;;;;;;186.50;173.05;;;;;;;19.89;97.48;101896.41;5061655;28;20072;-47
2021/08/11 08:22:44;;;;;;;178.57;165.63;;;;;;;20.05;97.14;101897.53;5059166;28;20132;-50
2021/08/11 08:25:12;;;;;;;226.52;210.80;;;;;;;20.21;96.51;101903.47;5051565;28;20063;-52
2021/08/11 08:27:41;;;;;;;236.50;217.52;;;;;;;20.35;96.08;101909.78;5065505;28;20056;-51
2021/08/11 08:30:09;;;;;;;214.93;199.75;;;;;;;20.56;94.87;101904.22;5057177;28;20053;-53
2021/08/11 08:32:38;;;;;;;225.82;208.40;;;;;;;20.67;94.13;101901.78;5063422;28;20036;-55
2021/08/11 08:35:07;;;;;;;186.63;172.30;;;;;;;20.68;92.91;101907.13;5057581;28;20060;-54
2021/08/11 08:37:37;;;;;;;193.38;180.00;;;;;;;20.68;92.96;101898.63;5080453;28;20670;-54
2021/08/11 08:40:08;;;;;;;224.75;208.70;;;;;;;20.83;92.50;101897.19;5068861;28;20052;-51
2021/08/11 08:42:35;;;;;;;218.80;203.63;;;;;;;20.99;91.72;101896.22;5065818;28;20048;-54
2021/08/11 08:45:04;;;;;;;203.38;189.32;;;;;;;21.20;91.09;101901.13;5059500;28;20048;-50
2021/08/11 08:47:32;;;;;;;208.80;194.00;;;;;;;21.20;89.60;101906.78;5065956;28;20052;-55
2021/08/11 08:50:02;;;;;;;176.50;164.27;;;;;;;21.26;89.23;101903.41;5062390;28;20037;-56
2021/08/11 08:52:31;;;;;;;196.23;181.98;;;;;;;21.27;88.65;101904.25;5063974;28;20053;-51
2021/08/11 08:55:00;;;;;;;177.45;165.13;;;;;;;21.19;88.47;101903.09;5063202;28;20055;-52
2021/08/11 08:57:29;;;;;;;196.02;181.02;;;;;;;21.18;88.40;101909.94;5060876;28;20489;-50
2021/08/11 08:59:57;;;;;;;196.45;181.60;;;;;;;21.23;87.97;101911.78;5062424;28;20532;-51
2021/08/11 09:02:25;;;;;;;188.32;175.02;;;;;;;21.45;87.67;101917.13;5057701;28;20117;-55
2021/08/11 09:04:53;;;;;;;203.63;187.90;;;;;;;21.75;86.61;101917.03;5060658;28;20078;-53
2021/08/11 09:07:22;;;;;;;209.32;193.27;;;;;;;21.92;84.96;101922.53;5058156;28;20139;-51
2021/08/11 09:09:50;;;;;;;221.70;206.60;;;;;;;22.12;84.45;101917.97;5058758;28;20052;-49
2021/08/11 09:12:19;;;;;;;190.82;176.95;;;;;;;22.23;83.64;101922.84;5059217;28;20048;-52
2021/08/11 09:14:48;;;;;;;192.50;178.35;;;;;;;22.46;83.13;101925.25;5062660;28;20040;-54
2021/08/11 09:17:33;;;;;;;218.52;201.82;;;;;;;22.84;81.64;101927.78;5061951;28;20508;-50
2021/08/11 09:20:02;;;;;;;241.00;224.68;;;;;;;23.01;80.52;101925.50;5063529;28;20049;-53
2021/08/11 09:22:45;;;;;;;179.70;167.27;;;;;;;23.20;77.74;101926.88;5051499;28;20041;-53
2021/08/11 09:25:13;;;;;;;215.20;199.05;;;;;;;23.41;77.34;101921.84;5063746;28;20110;-53
2021/08/11 09:27:42;;;;;;;212.80;197.00;;;;;;;23.34;77.50;101927.34;5061501;28;20171;-54
2021/08/11 09:30:14;;;;;;;184.30;171.02;;;;;;;23.06;77.46;101923.59;5064561;28;20139;-53
2021/08/11 09:32:50;;;;;;;177.95;166.25;;;;;;;23.18;76.88;101929.28;5060871;28;20152;-56
2021/08/11 09:35:20;;;;;;;208.93;193.95;;;;;;;23.26;76.92;101929.13;5064061;28;20049;-54
2021/08/11 09:37:50;;;;;;;195.65;181.48;;;;;;;23.31;76.19;101931.75;5060385;28;20052;-53
2021/08/11 09:40:20;;;;;;;178.05;165.50;;;;;;;23.28;75.66;101937.31;5065884;28;20067;-51
2021/08/11 09:42:52;;;;;;;196.18;182.50;;;;;;;23.23;75.88;101935.53;5050308;28;20056;-52
2021/08/11 09:45:24;;;;;;;174.85;162.05;;;;;;;23.03;75.99;101937.38;5065626;28;20044;-49
2021/08/11 09:48:02;;;;;;;162.38;150.88;;;;;;;22.82;76.21;101947.22;5058350;28;20431;-56
2021/08/11 09:50:45;;;;;;;177.25;165.10;;;;;;;22.58;75.83;101946.00;5065382;28;20056;-55
2021/08/11 09:53:16;;;;;;;171.15;159.27;;;;;;;22.64;76.85;101943.75;5048114;28;20400;-50
2021/08/11 09:55:57;;;;;;;179.38;167.70;;;;;;;22.75;73.76;101949.81;5055396;28;20044;-51
2021/08/11 09:58:25;;;;;;;168.40;156.52;;;;;;;22.79;76.33;101954.44;5051918;28;20059;-51
2021/08/11 10:00:52;;;;;;;171.45;159.73;;;;;;;23.12;76.06;101956.34;5065489;28;20052;-54
2021/08/11 10:03:21;;;;;;;213.85;198.75;;;;;;;23.37;75.26;101949.41;5057595;28;20050;-53
2021/08/11 10:05:51;;;;;;;198.73;184.68;;;;;;;23.36;74.50;101957.13;5065256;28;20063;-55
2021/08/11 10:08:32;;;;;;;174.02;162.15;;;;;;;22.97;74.24;101961.59;5058139;28;20052;-51
2021/08/11 10:11:00;;;;;;;174.98;162.60;;;;;;;22.72;75.69;101961.91;5065107;28;20048;-53
2021/08/11 10:13:31;;;;;;;205.43;191.23;;;;;;;22.76;76.41;101975.09;5058225;28;20047;-55
2021/08/11 10:16:00;;;;;;;181.27;168.77;;;;;;;22.88;76.26;101966.56;5065315;28;20483;-55
2021/08/11 10:18:28;;;;;;;187.25;175.13;;;;;;;23.08;74.95;101956.22;5073090;28;20059;-51
2021/08/11 10:20:57;;;;;;;190.88;177.50;;;;;;;23.34;74.94;101967.22;5060953;28;20132;-52
2021/08/11 10:23:25;;;;;;;177.23;164.80;;;;;;;23.16;73.95;101966.66;5070535;28;20066;-50
2021/08/11 10:25:55;;;;;;;173.40;161.75;;;;;;;23.00;74.53;101968.56;5058252;28;20087;-52
2021/08/11 10:28:24;;;;;;;191.38;177.43;;;;;;;23.11;73.96;101972.59;5059729;28;20044;-55
2021/08/11 10:30:53;;;;;;;181.52;168.90;;;;;;;22.94;74.25;101975.69;5063369;28;20386;-52
2021/08/11 10:33:21;;;;;;;185.38;173.07;;;;;;;22.98;73.95;101971.75;5060350;28;20482;-51
2021/08/11 10:35:50;;;;;;;198.05;184.88;;;;;;;22.94;74.25;101976.53;5060708;28;20041;-54
2021/08/11 10:38:19;;;;;;;178.27;165.65;;;;;;;23.20;74.52;101976.13;5059396;28;20055;-54
2021/08/11 10:40:52;;;;;;;163.95;150.90;;;;;;;23.59;73.15;101979.41;5053745;28;20484;-50
2021/08/11 10:43:22;;;;;;;155.60;144.98;;;;;;;23.53;72.31;101986.56;5057447;28;20140;-49
2021/08/11 10:45:59;;;;;;;214.48;199.02;;;;;;;23.52;72.64;101985.72;5053603;28;20111;-49
2021/08/11 10:48:27;;;;;;;184.38;171.50;;;;;;;23.70;72.25;101975.69;5057847;28;20048;-51
2021/08/11 10:50:55;;;;;;;174.40;162.15;;;;;;;23.70;71.79;101978.53;5056556;28;20048;-49
2021/08/11 10:53:23;;;;;;;168.30;157.35;;;;;;;23.67;72.36;101975.59;5061263;28;20052;-53
2021/08/11 10:55:52;;;;;;;216.32;201.13;;;;;;;23.48;72.05;101983.91;5072927;28;20548;-52
2021/08/11 10:58:38;;;;;;;187.90;175.10;;;;;;;23.41;72.29;101983.69;5072941;28;20511;-50
2021/08/11 11:01:31;;;;;;;177.10;164.77;;;;;;;23.49;72.05;101971.34;5056604;28;20145;-50
2021/08/11 11:04:00;;;;;;;159.77;148.38;;;;;;;23.73;71.21;101990.41;5061234;28;20404;-53
2021/08/11 11:06:55;;;;;;;205.48;191.00;;;;;;;23.78;71.73;101993.03;5066897;28;20094;-53
2021/08/11 11:09:23;;;;;;;197.95;183.65;;;;;;;23.79;72.09;101983.25;5051914;28;20053;-52
2021/08/11 11:11:51;;;;;;;96.13;89.35;;;;;;;23.58;71.39;101994.88;5060679;28;20056;-54